Time;durP1;ratioP1;P1;durP2;ratioP2;P2;SDS_P1;SDS_P2;PMS_P1;PMS_P2;Temp;Humidity;BMP_temperature;BMP_pressure;BME280_temperature;BME280_humidity;BME280_pressure;Samples;Min_cycle;Max_cycle;Signal;HPM_P1;HPM_P2
2023/08/02 00:00:29;;;;;;;5.03;2.03;;;18.40;99.90;;;;;;2081156;28;20026;-70
2023/08/02 00:01:30;;;;;;;7.07;2.17;;;18.40;99.90;;;;;;2077787;28;20540;-70
2023/08/02 00:02:30;;;;;;;6.80;2.15;;;18.40;99.90;;;;;;2080087;28;20020;-71
2023/08/02 00:03:31;;;;;;;7.30;2.70;;;18.40;99.90;;;;;;2080279;28;20044;-70
2023/08/02 00:04:31;;;;;;;3.55;1.92;;;18.40;99.90;;;;;;2081840;28;20504;-70
2023/08/02 00:05:32;;;;;;;6.20;2.00;;;18.40;99.90;;;;;;2078692;28;20053;-70
2023/08/02 00:06:32;;;;;;;4.82;2.28;;;18.40;99.90;;;;;;2080639;28;20324;-70
2023/08/02 00:07:33;;;;;;;7.10;2.65;;;18.30;99.90;;;;;;2080125;28;20022;-70
2023/08/02 00:08:34;;;;;;;5.95;2.25;;;18.40;99.90;;;;;;2081961;28;20025;-70
2023/08/02 00:09:35;;;;;;;4.15;2.20;;;18.30;99.90;;;;;;2080925;28;20029;-71
2023/08/02 00:10:36;;;;;;;5.50;2.17;;;18.30;99.90;;;;;;2080340;28;20031;-70
2023/08/02 00:11:37;;;;;;;6.38;2.55;;;18.30;99.90;;;;;;2082456;28;20021;-70
2023/08/02 00:12:37;;;;;;;9.85;2.60;;;18.40;99.90;;;;;;2079429;28;20022;-70
2023/08/02 00:13:38;;;;;;;7.40;2.10;;;18.40;99.90;;;;;;2080413;28;20018;-70
2023/08/02 00:14:39;;;;;;;6.80;2.60;;;18.30;99.90;;;;;;2079968;28;20108;-70
2023/08/02 00:15:40;;;;;;;6.85;2.45;;;18.30;99.90;;;;;;2080419;28;20029;-70
2023/08/02 00:16:40;;;;;;;5.55;1.98;;;18.30;99.90;;;;;;2080242;28;20026;-70
2023/08/02 00:17:41;;;;;;;6.07;1.90;;;18.30;99.90;;;;;;2080587;28;20025;-71
2023/08/02 00:18:41;;;;;;;5.47;2.22;;;18.30;99.90;;;;;;2079969;28;20030;-70
2023/08/02 00:19:42;;;;;;;8.02;2.60;;;18.30;99.90;;;;;;2080839;28;20367;-70
2023/08/02 00:20:44;;;;;;;9.68;2.95;;;18.30;99.90;;;;;;2080708;28;20477;-71
2023/08/02 00:21:44;;;;;;;4.13;2.38;;;18.30;99.90;;;;;;2081188;28;20049;-70
2023/08/02 00:22:45;;;;;;;5.93;1.85;;;18.30;99.90;;;;;;2081458;28;20029;-70
2023/08/02 00:23:45;;;;;;;9.00;2.30;;;18.30;99.90;;;;;;2078837;28;20025;-70
2023/08/02 00:24:46;;;;;;;4.57;2.35;;;18.20;99.90;;;;;;2079796;28;20068;-70
2023/08/02 00:25:47;;;;;;;6.20;1.90;;;18.20;99.90;;;;;;2082626;28;20033;-70
2023/08/02 00:26:47;;;;;;;4.32;1.90;;;18.30;99.90;;;;;;2078932;28;20028;-70
2023/08/02 00:27:48;;;;;;;6.63;2.25;;;18.30;99.90;;;;;;2078727;28;20033;-70
2023/08/02 00:28:48;;;;;;;6.40;2.13;;;18.20;99.90;;;;;;2079585;28;20128;-71
2023/08/02 00:29:50;;;;;;;15.00;2.75;;;18.20;99.90;;;;;;2079370;28;20029;-70
2023/08/02 00:30:50;;;;;;;6.88;2.38;;;18.20;99.90;;;;;;2080401;28;20025;-70
2023/08/02 00:31:51;;;;;;;5.40;1.85;;;18.20;99.90;;;;;;2078852;28;20040;-71
2023/08/02 00:32:51;;;;;;;6.22;2.45;;;18.20;99.90;;;;;;2080071;28;20038;-70
2023/08/02 00:33:52;;;;;;;5.75;2.20;;;18.20;99.90;;;;;;2079787;28;20378;-70
2023/08/02 00:34:54;;;;;;;6.90;2.00;;;18.20;99.90;;;;;;2080136;28;20512;-70
2023/08/02 00:35:55;;;;;;;6.13;2.30;;;18.20;99.90;;;;;;2081298;28;20056;-71
2023/08/02 00:36:55;;;;;;;5.95;2.20;;;18.20;99.90;;;;;;2080822;28;20030;-70
2023/08/02 00:37:56;;;;;;;8.35;2.22;;;18.20;99.90;;;;;;2080590;28;20035;-71
2023/08/02 00:38:56;;;;;;;5.40;2.30;;;18.20;99.90;;;;;;2080107;28;20064;-70
2023/08/02 00:39:57;;;;;;;6.25;2.38;;;18.20;99.90;;;;;;2079387;28;20025;-70
2023/08/02 00:41:05;;;;;;;4.68;2.08;;;18.10;99.90;;;;;;2081189;28;20053;-70
2023/08/02 00:42:06;;;;;;;6.07;2.90;;;18.20;99.90;;;;;;2079734;28;20032;-71
2023/08/02 00:43:06;;;;;;;5.38;2.30;;;18.10;99.90;;;;;;2080884;28;20025;-70
2023/08/02 00:44:07;;;;;;;5.97;2.20;;;18.10;99.90;;;;;;2080416;28;20033;-71
2023/08/02 00:45:08;;;;;;;5.05;2.22;;;18.10;99.90;;;;;;2079101;28;20112;-70
2023/08/02 00:46:10;;;;;;;4.95;2.10;;;18.10;99.90;;;;;;2082679;28;20116;-70
2023/08/02 00:47:11;;;;;;;6.30;2.13;;;18.10;99.90;;;;;;2079924;28;20013;-71
2023/08/02 00:48:11;;;;;;;6.10;2.40;;;18.10;99.90;;;;;;2081219;28;20025;-70
2023/08/02 00:49:12;;;;;;;5.80;2.00;;;18.10;99.90;;;;;;2081457;28;20056;-70
2023/08/02 00:50:12;;;;;;;6.60;1.88;;;18.10;99.90;;;;;;2077088;28;20048;-70
2023/08/02 00:51:17;;;;;;;10.55;2.30;;;18.10;99.90;;;;;;2079461;28;20493;-71
2023/08/02 00:52:18;;;;;;;7.22;2.33;;;18.10;99.90;;;;;;2082277;28;20474;-70
2023/08/02 00:53:18;;;;;;;6.65;2.25;;;18.10;99.90;;;;;;2078159;28;20395;-70
2023/08/02 00:54:19;;;;;;;5.50;2.30;;;18.10;99.90;;;;;;2080086;28;20049;-71
2023/08/02 00:55:20;;;;;;;7.38;2.30;;;18.10;99.90;;;;;;2078143;28;20663;-71
2023/08/02 00:56:20;;;;;;;9.23;3.13;;;18.10;99.90;;;;;;2079389;28;20033;-70
2023/08/02 00:57:21;;;;;;;8.52;2.58;;;18.10;99.90;;;;;;2081333;28;20444;-70
2023/08/02 00:58:22;;;;;;;5.10;2.00;;;18.10;99.90;;;;;;2080692;28;20114;-70
2023/08/02 00:59:22;;;;;;;6.88;2.60;;;18.10;99.90;;;;;;2078404;28;20021;-71
2023/08/02 01:00:23;;;;;;;9.27;2.28;;;18.10;99.90;;;;;;2077767;28;20028;-71
2023/08/02 01:01:24;;;;;;;4.72;2.78;;;18.10;99.90;;;;;;2080607;28;20033;-71
2023/08/02 01:02:25;;;;;;;9.32;2.55;;;18.00;99.90;;;;;;2081973;28;20029;-71
2023/08/02 01:03:25;;;;;;;4.78;1.80;;;18.10;99.90;;;;;;2081083;28;20545;-70
2023/08/02 01:04:26;;;;;;;8.75;2.30;;;18.10;99.90;;;;;;2080980;28;20067;-70
2023/08/02 01:05:33;;;;;;;6.13;2.17;;;18.00;99.90;;;;;;2081488;28;21071;-70
2023/08/02 01:06:52;;;;;;;3.45;1.77;;;18.10;99.90;;;;;;2081809;28;20021;-70
2023/08/02 01:07:58;;;;;;;8.20;3.25;;;18.10;99.90;;;;;;2085077;28;20017;-70
2023/08/02 01:09:06;;;;;;;4.55;2.15;;;18.10;99.90;;;;;;2081068;28;20031;-71
2023/08/02 01:10:25;;;;;;;5.50;2.00;;;18.00;99.90;;;;;;2078808;28;20385;-70
2023/08/02 01:11:36;;;;;;;6.88;2.40;;;18.00;99.90;;;;;;2080069;28;20515;-70
2023/08/02 01:12:43;;;;;;;8.30;2.65;;;18.00;99.90;;;;;;2082249;28;20039;-70
2023/08/02 01:13:49;;;;;;;5.38;1.83;;;18.00;99.90;;;;;;2078618;28;20021;-71
2023/08/02 01:14:52;;;;;;;4.57;2.15;;;18.00;99.90;;;;;;2080390;28;20025;-70
2023/08/02 01:15:53;;;;;;;5.60;2.58;;;17.90;99.90;;;;;;2083496;28;20032;-71
2023/08/02 01:16:54;;;;;;;6.13;2.50;;;17.90;99.90;;;;;;2082208;28;20040;-70
2023/08/02 01:17:55;;;;;;;5.10;2.15;;;17.90;99.90;;;;;;2082441;28;20510;-71
2023/08/02 01:18:56;;;;;;;6.03;2.15;;;17.90;99.90;;;;;;2079813;28;20030;-71
2023/08/02 01:20:06;;;;;;;4.25;2.30;;;17.90;99.90;;;;;;2080701;28;20025;-70
2023/08/02 01:21:07;;;;;;;6.68;1.80;;;17.90;99.90;;;;;;2080263;28;20025;-70
2023/08/02 01:22:08;;;;;;;5.93;2.45;;;17.90;99.90;;;;;;2083406;28;20094;-71
2023/08/02 01:23:08;;;;;;;6.47;2.20;;;17.90;99.90;;;;;;2080181;28;20105;-70
2023/08/02 01:24:09;;;;;;;7.38;2.53;;;17.90;99.90;;;;;;2079671;28;20578;-70
2023/08/02 01:25:10;;;;;;;6.65;2.33;;;17.90;99.90;;;;;;2080136;28;20033;-71
2023/08/02 01:26:12;;;;;;;6.28;2.30;;;17.80;99.90;;;;;;2077885;28;20372;-70
2023/08/02 01:27:21;;;;;;;5.00;2.25;;;17.80;99.90;;;;;;2079899;28;20021;-71
2023/08/02 01:28:25;;;;;;;5.63;1.80;;;17.80;99.90;;;;;;2077950;28;20033;-70
2023/08/02 01:29:27;;;;;;;4.25;2.25;;;17.80;99.90;;;;;;2080994;28;20090;-70
2023/08/02 01:30:35;;;;;;;5.35;1.90;;;17.80;99.90;;;;;;2080511;28;20025;-70
2023/08/02 01:31:37;;;;;;;4.00;1.73;;;17.80;99.90;;;;;;2080202;28;20519;-71
2023/08/02 01:32:37;;;;;;;3.78;2.15;;;17.70;99.90;;;;;;2080458;28;20385;-71
2023/08/02 01:33:46;;;;;;;5.55;1.88;;;17.80;99.90;;;;;;2081565;28;20025;-71
2023/08/02 01:34:49;;;;;;;6.78;2.30;;;17.80;99.90;;;;;;2083102;28;20033;-70
2023/08/02 01:35:50;;;;;;;4.43;1.90;;;17.70;99.90;;;;;;2081756;28;20044;-70
2023/08/02 01:36:51;;;;;;;7.18;2.33;;;17.70;99.90;;;;;;2082816;28;20017;-70
2023/08/02 01:37:52;;;;;;;6.22;2.00;;;17.70;99.90;;;;;;2083849;28;20547;-71
2023/08/02 01:38:52;;;;;;;5.88;1.98;;;17.70;99.90;;;;;;2080999;28;20119;-70
2023/08/02 01:39:53;;;;;;;9.40;2.67;;;17.70;99.90;;;;;;2081306;28;20401;-71
2023/08/02 01:40:53;;;;;;;3.45;1.92;;;17.70;99.90;;;;;;2080218;28;20053;-70
2023/08/02 01:41:54;;;;;;;4.97;2.03;;;17.70;99.90;;;;;;2081058;28;20032;-70
2023/08/02 01:42:55;;;;;;;5.05;1.85;;;17.70;99.90;;;;;;2080453;28;20116;-71
2023/08/02 01:43:55;;;;;;;5.28;2.08;;;17.70;99.90;;;;;;2080872;28;20036;-70
2023/08/02 01:44:56;;;;;;;6.18;1.85;;;17.60;99.90;;;;;;2082959;28;20048;-70
2023/08/02 01:45:56;;;;;;;7.38;2.03;;;17.70;99.90;;;;;;2080603;28;20040;-70
2023/08/02 01:46:57;;;;;;;2.65;1.75;;;17.70;99.90;;;;;;2078994;28;20025;-70
2023/08/02 01:47:57;;;;;;;5.22;1.90;;;17.60;99.90;;;;;;2079680;28;20025;-70
2023/08/02 01:48:58;;;;;;;5.45;2.30;;;17.60;99.90;;;;;;2080524;28;20014;-70
2023/08/02 01:49:58;;;;;;;4.25;2.17;;;17.60;99.90;;;;;;2081604;28;20061;-70
2023/08/02 01:50:59;;;;;;;7.20;2.35;;;17.60;99.90;;;;;;2081753;28;20049;-70
2023/08/02 01:51:59;;;;;;;6.95;2.10;;;17.60;99.90;;;;;;2080819;28;20541;-70
2023/08/02 01:53:00;;;;;;;6.25;2.05;;;17.60;99.90;;;;;;2082149;28;21304;-70
2023/08/02 01:54:01;;;;;;;9.48;1.98;;;17.60;99.90;;;;;;2079515;28;20021;-70
2023/08/02 01:55:01;;;;;;;4.15;1.80;;;17.60;99.90;;;;;;2080846;28;20033;-70
2023/08/02 01:56:02;;;;;;;6.05;1.70;;;17.50;99.90;;;;;;2081654;28;20064;-70
2023/08/02 01:57:02;;;;;;;4.97;1.83;;;17.50;99.90;;;;;;2078625;28;20052;-70
2023/08/02 01:58:03;;;;;;;7.55;2.13;;;17.50;99.90;;;;;;2081842;28;20021;-70
2023/08/02 01:59:03;;;;;;;4.53;1.77;;;17.50;99.90;;;;;;2080731;28;20025;-71
2023/08/02 02:00:04;;;;;;;8.20;2.22;;;17.50;99.90;;;;;;2077597;28;20017;-70
2023/08/02 02:01:05;;;;;;;5.25;2.13;;;17.50;99.90;;;;;;2083018;28;20040;-70
2023/08/02 02:02:06;;;;;;;7.65;1.85;;;17.50;99.90;;;;;;2081799;28;20468;-71
2023/08/02 02:03:06;;;;;;;5.45;2.20;;;17.50;99.90;;;;;;2082603;28;20028;-71
2023/08/02 02:04:07;;;;;;;7.40;2.03;;;17.50;99.90;;;;;;2081732;28;20029;-70
2023/08/02 02:05:07;;;;;;;5.18;1.73;;;17.50;99.90;;;;;;2079885;28;20030;-70
2023/08/02 02:06:08;;;;;;;4.63;1.80;;;17.50;99.90;;;;;;2078852;28;20021;-70
2023/08/02 02:07:08;;;;;;;7.63;2.58;;;17.50;99.90;;;;;;2072592;28;20036;-70
2023/08/02 02:08:09;;;;;;;7.68;1.95;;;17.50;99.90;;;;;;2079144;28;20366;-70
2023/08/02 02:09:09;;;;;;;5.15;2.30;;;17.50;99.90;;;;;;2083476;28;20025;-71
2023/08/02 02:10:10;;;;;;;6.75;2.08;;;17.50;99.90;;;;;;2078548;28;20021;-71
2023/08/02 02:11:11;;;;;;;5.18;2.15;;;17.50;99.90;;;;;;2080807;28;20302;-71
2023/08/02 02:12:12;;;;;;;3.50;1.95;;;17.50;99.90;;;;;;2080407;28;20078;-70
2023/08/02 02:13:12;;;;;;;6.38;2.25;;;17.50;99.90;;;;;;2081040;28;20026;-70
2023/08/02 02:14:13;;;;;;;6.32;1.90;;;17.50;99.90;;;;;;2081445;28;20030;-70
2023/08/02 02:15:13;;;;;;;4.00;2.05;;;17.50;99.90;;;;;;2080808;28;20135;-70
2023/08/02 02:16:14;;;;;;;5.65;1.85;;;17.50;99.90;;;;;;2079338;28;20033;-71
2023/08/02 02:17:15;;;;;;;5.32;1.83;;;17.50;99.90;;;;;;2081037;28;20064;-70
2023/08/02 02:18:15;;;;;;;5.97;2.25;;;17.50;99.90;;;;;;2080442;28;20025;-70
2023/08/02 02:19:16;;;;;;;3.20;1.92;;;17.50;99.90;;;;;;2080178;28;20072;-70
2023/08/02 02:20:16;;;;;;;5.63;2.08;;;17.50;99.90;;;;;;2080528;28;20478;-70
2023/08/02 02:21:17;;;;;;;5.32;1.80;;;17.50;99.90;;;;;;2081886;28;20032;-70
2023/08/02 02:22:17;;;;;;;6.03;2.00;;;17.50;99.90;;;;;;2079610;28;20100;-70
2023/08/02 02:23:18;;;;;;;4.22;1.85;;;17.50;99.90;;;;;;2079800;28;20045;-70
2023/08/02 02:24:18;;;;;;;5.78;2.03;;;17.50;99.90;;;;;;2080271;28;20117;-70
2023/08/02 02:25:19;;;;;;;3.50;2.17;;;17.50;99.90;;;;;;2079926;28;20087;-71
2023/08/02 02:26:19;;;;;;;4.55;2.03;;;17.50;99.90;;;;;;2080365;28;20459;-70
2023/08/02 02:27:20;;;;;;;6.38;2.83;;;17.50;99.90;;;;;;2081656;28;20021;-70
2023/08/02 02:28:21;;;;;;;6.03;2.22;;;17.60;99.90;;;;;;2082137;28;20033;-70
2023/08/02 02:29:22;;;;;;;4.68;2.00;;;17.60;99.90;;;;;;2080952;28;20568;-70
2023/08/02 02:30:23;;;;;;;7.10;2.40;;;17.60;99.90;;;;;;2081020;28;20013;-70
2023/08/02 02:31:24;;;;;;;5.45;2.05;;;17.60;99.90;;;;;;2079891;28;20024;-70
2023/08/02 02:32:24;;;;;;;4.25;1.70;;;17.60;99.90;;;;;;2078311;28;20917;-70
2023/08/02 02:33:25;;;;;;;7.25;2.20;;;17.60;99.90;;;;;;2082095;28;20021;-70
2023/08/02 02:34:25;;;;;;;4.30;2.25;;;17.60;99.90;;;;;;2082326;28;20026;-70
2023/08/02 02:35:27;;;;;;;8.38;2.20;;;17.60;99.90;;;;;;2081503;28;20033;-70
2023/08/02 02:36:27;;;;;;;3.42;1.85;;;17.60;99.90;;;;;;2081845;28;20035;-70
2023/08/02 02:37:28;;;;;;;5.60;2.05;;;17.60;99.90;;;;;;2079689;28;20040;-70
2023/08/02 02:38:28;;;;;;;5.18;2.08;;;17.60;99.90;;;;;;2079371;28;20564;-70
2023/08/02 02:39:29;;;;;;;6.75;2.30;;;17.60;99.90;;;;;;2080940;28;20048;-70
2023/08/02 02:40:29;;;;;;;6.40;2.15;;;17.60;99.90;;;;;;2081685;28;20064;-70
2023/08/02 02:41:30;;;;;;;6.85;1.98;;;17.60;99.90;;;;;;2080657;28;20036;-70
2023/08/02 02:42:30;;;;;;;5.78;2.17;;;17.60;99.90;;;;;;2079908;28;20029;-70
2023/08/02 02:43:31;;;;;;;4.10;2.20;;;17.60;99.90;;;;;;2079416;28;20456;-70
2023/08/02 02:44:42;;;;;;;4.35;2.15;;;17.60;99.90;;;;;;2081407;28;20104;-70
2023/08/02 02:45:43;;;;;;;5.55;2.33;;;17.60;99.90;;;;;;2078897;28;20026;-70
2023/08/02 02:46:43;;;;;;;7.03;2.20;;;17.60;99.90;;;;;;2080262;28;20078;-70
2023/08/02 02:47:44;;;;;;;6.63;2.60;;;17.60;99.90;;;;;;2078811;28;20586;-70
2023/08/02 02:48:44;;;;;;;8.70;2.65;;;17.60;99.90;;;;;;2080250;28;20079;-70
2023/08/02 02:49:45;;;;;;;6.30;2.83;;;17.60;99.90;;;;;;2080471;28;20481;-70
2023/08/02 02:50:45;;;;;;;4.00;2.15;;;17.60;99.90;;;;;;2081081;28;20051;-70
2023/08/02 02:51:46;;;;;;;4.32;2.50;;;17.60;99.90;;;;;;2079556;28;20018;-70
2023/08/02 02:52:46;;;;;;;6.88;2.83;;;17.60;99.90;;;;;;2081581;28;20465;-70
2023/08/02 02:53:47;;;;;;;9.00;2.72;;;17.60;99.90;;;;;;2080074;28;20076;-70
2023/08/02 02:54:47;;;;;;;4.75;2.33;;;17.60;99.90;;;;;;2080224;28;20033;-70
2023/08/02 02:55:48;;;;;;;4.53;2.03;;;17.60;99.90;;;;;;2080526;28;20084;-70
2023/08/02 02:56:48;;;;;;;5.47;2.42;;;17.60;99.90;;;;;;2082360;28;20083;-70
2023/08/02 02:57:50;;;;;;;3.85;2.22;;;17.70;99.90;;;;;;2078837;28;20445;-70
2023/08/02 02:58:51;;;;;;;5.53;2.20;;;17.70;99.90;;;;;;2079753;28;20104;-71
2023/08/02 02:59:51;;;;;;;3.75;2.15;;;17.70;99.90;;;;;;2081230;28;20083;-70
2023/08/02 03:00:53;;;;;;;7.57;2.60;;;17.70;99.90;;;;;;2080448;28;20033;-70
2023/08/02 03:01:54;;;;;;;5.60;2.40;;;17.70;99.90;;;;;;2079847;28;20136;-70
2023/08/02 03:02:54;;;;;;;9.10;2.33;;;17.70;99.90;;;;;;2078230;28;20036;-70
2023/08/02 03:03:55;;;;;;;5.97;2.92;;;17.70;99.90;;;;;;2083052;28;20082;-70
2023/08/02 03:04:56;;;;;;;10.30;2.35;;;17.70;99.90;;;;;;2078688;28;20026;-70
2023/08/02 03:05:56;;;;;;;4.38;2.10;;;17.70;99.90;;;;;;2081606;28;20083;-70
2023/08/02 03:06:57;;;;;;;6.20;2.60;;;17.70;99.90;;;;;;2079236;28;20828;-70
2023/08/02 03:07:57;;;;;;;8.00;2.67;;;17.70;99.90;;;;;;2080219;28;20033;-70
2023/08/02 03:08:58;;;;;;;5.75;2.40;;;17.70;99.90;;;;;;2081519;28;20029;-70
2023/08/02 03:09:58;;;;;;;6.18;2.45;;;17.70;99.90;;;;;;2081143;28;20036;-70
2023/08/02 03:10:59;;;;;;;9.00;2.75;;;17.70;99.90;;;;;;2079531;28;20053;-70
2023/08/02 03:11:59;;;;;;;4.53;1.95;;;17.80;99.90;;;;;;2079585;28;20018;-70
2023/08/02 03:13:00;;;;;;;4.55;2.20;;;17.70;99.90;;;;;;2080723;28;20500;-70
2023/08/02 03:14:01;;;;;;;5.07;2.33;;;17.70;99.90;;;;;;2082100;28;20235;-70
2023/08/02 03:15:01;;;;;;;5.97;2.67;;;17.80;99.90;;;;;;2081835;28;20107;-70
2023/08/02 03:16:02;;;;;;;5.40;2.30;;;17.80;99.90;;;;;;2082202;28;20709;-71
2023/08/02 03:17:03;;;;;;;5.07;2.30;;;17.70;99.90;;;;;;2081512;28;20412;-71
2023/08/02 03:18:03;;;;;;;6.43;2.83;;;17.70;99.90;;;;;;2080348;28;20025;-70
2023/08/02 03:19:05;;;;;;;4.72;2.40;;;17.70;99.90;;;;;;2080146;28;20017;-70
2023/08/02 03:20:06;;;;;;;6.95;2.42;;;17.80;99.90;;;;;;2079347;28;20026;-70
2023/08/02 03:21:07;;;;;;;10.13;2.70;;;17.70;99.90;;;;;;2079894;28;20018;-71
2023/08/02 03:22:07;;;;;;;4.22;2.17;;;17.80;99.90;;;;;;2081417;28;20067;-71
2023/08/02 03:23:09;;;;;;;7.13;2.47;;;17.80;99.90;;;;;;2079299;28;20108;-70
2023/08/02 03:24:09;;;;;;;5.95;2.47;;;17.80;99.90;;;;;;2077559;28;20037;-70
2023/08/02 03:25:10;;;;;;;7.00;2.88;;;17.80;99.90;;;;;;2081343;28;20022;-70
2023/08/02 03:26:10;;;;;;;3.85;2.08;;;17.80;99.90;;;;;;2080183;28;20024;-70
2023/08/02 03:27:11;;;;;;;4.22;2.58;;;17.80;99.90;;;;;;2079682;28;20029;-70
2023/08/02 03:28:11;;;;;;;5.65;2.40;;;17.80;99.90;;;;;;2082123;28;20114;-70
2023/08/02 03:29:12;;;;;;;5.60;2.15;;;17.80;99.90;;;;;;2081822;28;20063;-70
2023/08/02 03:30:12;;;;;;;4.15;2.42;;;17.80;99.90;;;;;;2080472;28;20049;-70
2023/08/02 03:31:13;;;;;;;6.55;2.53;;;17.80;99.90;;;;;;2078175;28;20032;-70
2023/08/02 03:32:13;;;;;;;6.97;2.50;;;17.80;99.90;;;;;;2081376;28;20033;-70
2023/08/02 03:33:14;;;;;;;9.07;3.25;;;17.80;99.90;;;;;;2080613;28;20021;-70
2023/08/02 03:34:15;;;;;;;3.53;2.28;;;17.90;99.90;;;;;;2078773;28;20032;-70
2023/08/02 03:35:15;;;;;;;7.85;2.60;;;17.90;99.90;;;;;;2081628;28;20048;-70
2023/08/02 03:36:16;;;;;;;4.30;2.10;;;17.90;99.90;;;;;;2078630;28;20109;-70
2023/08/02 03:37:17;;;;;;;5.10;2.58;;;17.90;99.90;;;;;;2081491;28;20025;-70
2023/08/02 03:38:17;;;;;;;3.55;2.17;;;17.90;99.90;;;;;;2081299;28;20049;-70
2023/08/02 03:39:18;;;;;;;4.65;2.33;;;17.90;99.90;;;;;;2081453;28;20059;-70
2023/08/02 03:40:19;;;;;;;8.52;2.45;;;17.90;99.90;;;;;;2078786;28;20488;-70
2023/08/02 03:41:20;;;;;;;6.00;2.67;;;17.90;99.90;;;;;;2076857;28;20018;-70
2023/08/02 03:42:20;;;;;;;8.10;2.97;;;17.90;99.90;;;;;;2080703;28;20481;-70
2023/08/02 03:43:21;;;;;;;6.20;2.38;;;17.90;99.90;;;;;;2080275;28;20069;-70
2023/08/02 03:44:22;;;;;;;5.70;2.53;;;17.90;99.90;;;;;;2082485;28;20669;-71
2023/08/02 03:45:22;;;;;;;4.80;2.45;;;17.90;99.90;;;;;;2079333;28;20048;-70
2023/08/02 03:46:23;;;;;;;6.13;2.95;;;17.90;99.90;;;;;;2080823;28;20021;-70
2023/08/02 03:47:23;;;;;;;4.63;2.15;;;17.90;99.90;;;;;;2081300;28;20488;-70
2023/08/02 03:48:25;;;;;;;5.97;2.05;;;17.90;99.90;;;;;;2081154;28;20022;-70
2023/08/02 03:49:25;;;;;;;4.82;2.10;;;17.90;99.90;;;;;;2080596;28;20013;-70
2023/08/02 03:50:27;;;;;;;5.30;2.35;;;17.90;99.90;;;;;;2081662;28;20018;-70
2023/08/02 03:51:27;;;;;;;7.88;2.67;;;17.90;99.90;;;;;;2078811;28;20096;-70
2023/08/02 03:52:28;;;;;;;5.10;2.28;;;17.90;99.90;;;;;;2079146;28;20014;-70
2023/08/02 03:53:30;;;;;;;6.28;2.88;;;17.90;99.90;;;;;;2079717;28;20026;-70
2023/08/02 03:54:31;;;;;;;5.07;2.30;;;17.90;99.90;;;;;;2080290;28;20061;-70
2023/08/02 03:55:31;;;;;;;6.15;2.60;;;17.90;99.90;;;;;;2081914;28;20496;-70
2023/08/02 03:56:32;;;;;;;5.35;2.20;;;17.90;99.90;;;;;;2077988;28;20029;-70
2023/08/02 03:57:32;;;;;;;4.10;2.33;;;17.90;99.90;;;;;;2080984;28;20101;-71
2023/08/02 03:58:33;;;;;;;8.00;2.55;;;17.90;99.90;;;;;;2080445;28;20053;-70
2023/08/02 03:59:34;;;;;;;3.40;2.05;;;17.90;99.90;;;;;;2079287;28;20457;-70
2023/08/02 04:00:34;;;;;;;4.32;2.50;;;17.90;99.90;;;;;;2080436;28;20032;-70
2023/08/02 04:01:35;;;;;;;4.22;2.38;;;17.90;99.90;;;;;;2078940;28;20029;-70
2023/08/02 04:02:35;;;;;;;5.80;2.72;;;17.90;99.90;;;;;;2079648;28;20034;-70
2023/08/02 04:03:36;;;;;;;4.25;1.83;;;17.90;99.90;;;;;;2081606;28;20025;-71
2023/08/02 04:04:36;;;;;;;4.43;2.08;;;17.90;99.90;;;;;;2081517;28;20037;-70
2023/08/02 04:05:37;;;;;;;6.10;2.08;;;17.90;99.90;;;;;;2080053;28;20607;-70
2023/08/02 04:06:37;;;;;;;4.20;2.17;;;18.00;99.90;;;;;;2083132;28;20033;-70
2023/08/02 04:07:38;;;;;;;8.00;2.33;;;17.90;99.90;;;;;;2079350;28;20033;-70
2023/08/02 04:08:38;;;;;;;3.00;2.00;;;18.00;99.90;;;;;;2080674;28;20030;-70
2023/08/02 04:09:39;;;;;;;4.70;1.85;;;18.00;99.90;;;;;;2080970;28;20076;-70
2023/08/02 04:10:40;;;;;;;5.75;2.40;;;17.90;99.90;;;;;;2079111;28;20491;-70
2023/08/02 04:11:40;;;;;;;3.50;2.15;;;18.00;99.90;;;;;;2079598;28;20074;-70
2023/08/02 04:12:41;;;;;;;5.57;1.90;;;18.00;99.90;;;;;;2079929;28;20021;-70
2023/08/02 04:13:41;;;;;;;3.55;1.75;;;18.00;99.90;;;;;;2078536;28;20507;-70
2023/08/02 04:14:42;;;;;;;5.43;2.78;;;18.00;99.90;;;;;;2079091;28;20057;-71
2023/08/02 04:15:42;;;;;;;4.63;1.90;;;18.00;99.90;;;;;;2080831;28;20025;-70
2023/08/02 04:16:43;;;;;;;4.55;2.40;;;18.00;99.90;;;;;;2080652;28;20053;-70
2023/08/02 04:17:43;;;;;;;5.97;2.20;;;18.00;99.90;;;;;;2079802;28;20375;-71
2023/08/02 04:18:44;;;;;;;7.07;2.50;;;18.00;99.90;;;;;;2079494;28;21187;-71
2023/08/02 04:19:44;;;;;;;6.55;2.30;;;18.00;99.90;;;;;;2081315;28;20033;-71
2023/08/02 04:20:45;;;;;;;4.05;2.10;;;18.00;99.90;;;;;;2079032;28;20100;-71
2023/08/02 04:21:47;;;;;;;8.07;2.30;;;18.00;99.90;;;;;;2077873;28;20026;-70
2023/08/02 04:22:49;;;;;;;3.17;2.10;;;18.10;99.90;;;;;;2080019;28;20585;-70
2023/08/02 04:23:50;;;;;;;8.13;2.97;;;18.10;99.90;;;;;;2079338;28;20029;-70
2023/08/02 04:24:51;;;;;;;5.05;2.28;;;18.10;99.90;;;;;;2080412;28;20118;-70
2023/08/02 04:25:52;;;;;;;3.53;1.85;;;18.10;99.90;;;;;;2082909;28;20034;-72
2023/08/02 04:26:52;;;;;;;5.45;2.00;;;18.10;99.90;;;;;;2080542;28;20048;-70
2023/08/02 04:27:53;;;;;;;6.20;1.98;;;18.10;99.90;;;;;;2080286;28;20022;-70
2023/08/02 04:28:53;;;;;;;3.38;2.05;;;18.10;99.90;;;;;;2079811;28;20045;-70
2023/08/02 04:29:54;;;;;;;3.10;1.92;;;18.10;99.90;;;;;;2079214;28;20113;-71
2023/08/02 04:30:54;;;;;;;5.20;2.30;;;18.10;99.90;;;;;;2080791;28;20091;-70
2023/08/02 04:31:55;;;;;;;7.55;2.22;;;18.10;99.90;;;;;;2078337;28;20542;-70
2023/08/02 04:32:56;;;;;;;4.57;2.25;;;18.10;99.90;;;;;;2078826;28;20029;-73
2023/08/02 04:33:56;;;;;;;5.63;2.30;;;18.10;99.90;;;;;;2079287;28;20025;-71
2023/08/02 04:34:57;;;;;;;2.92;2.00;;;18.10;99.90;;;;;;2080692;28;20057;-71
2023/08/02 04:35:59;;;;;;;4.30;1.75;;;18.10;99.90;;;;;;2080732;28;20053;-71
2023/08/02 04:36:59;;;;;;;2.88;1.70;;;18.10;99.90;;;;;;2081907;28;20233;-71
2023/08/02 04:38:00;;;;;;;4.97;2.33;;;18.20;99.90;;;;;;2080202;28;20026;-71
2023/08/02 04:39:03;;;;;;;3.97;1.75;;;18.20;99.90;;;;;;2079680;28;20021;-71
2023/08/02 04:40:04;;;;;;;4.28;1.80;;;18.10;99.90;;;;;;2071773;28;20037;-71
2023/08/02 04:41:05;;;;;;;3.35;1.92;;;18.20;99.90;;;;;;2080686;28;20386;-71
2023/08/02 04:42:06;;;;;;;6.35;2.38;;;18.20;99.90;;;;;;2079496;28;20021;-71
2023/08/02 04:43:06;;;;;;;3.08;2.10;;;18.20;99.90;;;;;;2080710;28;20120;-71
2023/08/02 04:44:07;;;;;;;3.50;1.80;;;18.20;99.90;;;;;;2081552;28;20030;-71
2023/08/02 04:45:08;;;;;;;2.75;1.83;;;18.20;99.90;;;;;;2078651;28;20034;-71
2023/08/02 04:46:09;;;;;;;4.13;2.00;;;18.20;99.90;;;;;;2078800;28;20022;-71
2023/08/02 04:47:10;;;;;;;4.47;2.15;;;18.20;99.90;;;;;;2078675;28;20031;-71
2023/08/02 04:48:10;;;;;;;4.13;1.80;;;18.20;99.90;;;;;;2081628;28;20460;-71
2023/08/02 04:49:11;;;;;;;5.10;1.98;;;18.20;99.90;;;;;;2082897;28;20030;-71
2023/08/02 04:50:11;;;;;;;3.33;1.70;;;18.20;99.90;;;;;;2078717;28;20384;-71
2023/08/02 04:51:12;;;;;;;6.78;2.33;;;18.30;99.90;;;;;;2078272;28;20238;-71
2023/08/02 04:52:13;;;;;;;4.78;2.50;;;18.30;99.90;;;;;;2079695;28;20414;-71
2023/08/02 04:53:13;;;;;;;3.47;2.40;;;18.20;99.90;;;;;;2081249;28;20026;-71
2023/08/02 04:54:14;;;;;;;4.25;1.77;;;18.30;99.90;;;;;;2080057;28;20076;-71
2023/08/02 04:55:15;;;;;;;4.50;1.80;;;18.30;99.90;;;;;;2080571;28;20071;-71
2023/08/02 04:56:16;;;;;;;5.28;2.13;;;18.20;99.90;;;;;;2081385;28;20073;-71
2023/08/02 04:57:16;;;;;;;3.95;1.73;;;18.30;99.90;;;;;;2078985;28;20060;-71
2023/08/02 04:58:17;;;;;;;3.10;1.90;;;18.30;99.90;;;;;;2078753;28;20485;-71
2023/08/02 04:59:17;;;;;;;5.18;1.90;;;18.30;99.90;;;;;;2079483;28;20049;-71
2023/08/02 05:00:18;;;;;;;4.32;1.92;;;18.40;99.90;;;;;;2078747;28;20026;-71
2023/08/02 05:01:18;;;;;;;4.05;2.00;;;18.40;99.90;;;;;;2079618;28;20025;-71
2023/08/02 05:02:21;;;;;;;3.13;1.63;;;18.40;99.90;;;;;;2080499;28;20025;-71
2023/08/02 05:03:21;;;;;;;2.88;2.03;;;18.40;99.90;;;;;;2078361;28;20025;-70
2023/08/02 05:04:22;;;;;;;3.42;1.90;;;18.40;99.90;;;;;;2079174;28;20642;-71
2023/08/02 05:05:24;;;;;;;2.90;1.90;;;18.40;99.90;;;;;;2077865;28;20025;-71
2023/08/02 05:06:24;;;;;;;2.63;1.65;;;18.40;99.90;;;;;;2079114;28;20025;-71
2023/08/02 05:07:25;;;;;;;2.97;2.13;;;18.40;99.90;;;;;;2080714;28;20029;-71
2023/08/02 05:08:28;;;;;;;4.75;1.98;;;18.40;99.90;;;;;;2079979;28;20083;-71
2023/08/02 05:09:29;;;;;;;2.80;1.80;;;18.40;99.90;;;;;;2078665;28;20021;-71
2023/08/02 05:10:29;;;;;;;4.18;1.77;;;18.40;99.90;;;;;;2078121;28;20105;-71
2023/08/02 05:11:31;;;;;;;4.55;2.00;;;18.40;99.90;;;;;;2078964;28;20128;-71
2023/08/02 05:12:34;;;;;;;9.15;2.53;;;18.40;99.90;;;;;;2079288;28;20060;-71
2023/08/02 05:13:35;;;;;;;4.43;1.88;;;18.40;99.90;;;;;;2078677;28;20030;-71
2023/08/02 05:14:35;;;;;;;2.60;1.70;;;18.40;99.90;;;;;;2080260;28;20106;-71
2023/08/02 05:15:36;;;;;;;4.22;1.58;;;18.40;99.90;;;;;;2080729;28;20026;-71
2023/08/02 05:16:37;;;;;;;3.03;1.52;;;18.40;99.90;;;;;;2080385;28;20385;-71
2023/08/02 05:17:38;;;;;;;5.32;2.08;;;18.40;99.90;;;;;;2078829;28;20511;-71